createdAt,value
2018-08-06T00:01:12.101Z,61.80
2018-08-06T00:03:41.270Z,61.50
2018-08-06T00:06:11.184Z,61.70
2018-08-06T00:08:40.051Z,61.80
2018-08-06T00:11:09.018Z,61.50
2018-08-06T00:13:38.816Z,61.60
2018-08-06T00:16:09.659Z,61.50
2018-08-06T00:18:39.172Z,61.60
2018-08-06T00:21:08.454Z,61.90
2018-08-06T00:23:37.380Z,62.50
2018-08-06T00:26:06.562Z,62.50
2018-08-06T00:28:36.186Z,63.20
2018-08-06T00:31:05.102Z,63.70
2018-08-06T00:33:34.169Z,64.10
2018-08-06T00:36:02.991Z,63.60
2018-08-06T00:38:32.114Z,64.20
2018-08-06T00:41:00.863Z,64.70
2018-08-06T00:43:29.610Z,64.10
2018-08-06T00:45:58.442Z,64.40
2018-08-06T00:48:27.691Z,64.20
2018-08-06T00:50:56.757Z,64.10
2018-08-06T00:53:25.534Z,63.60
2018-08-06T00:55:55.024Z,64.50
2018-08-06T00:58:24.424Z,65.20
2018-08-06T01:00:53.187Z,65.40
2018-08-06T01:03:22.632Z,65.80
2018-08-06T01:05:51.866Z,65.60
2018-08-06T01:08:20.646Z,66.30
2018-08-06T01:10:50.275Z,65.80
2018-08-06T01:13:19.370Z,65.90
2018-08-06T01:15:48.597Z,66.10
2018-08-06T01:18:17.797Z,66.70
2018-08-06T01:20:46.639Z,66.90
2018-08-06T01:23:15.493Z,67.10
2018-08-06T01:25:44.947Z,67.20
2018-08-06T01:28:13.715Z,68.00
2018-08-06T01:30:43.183Z,68.60
2018-08-06T01:33:12.065Z,69.10
2018-08-06T01:35:40.820Z,69.00
2018-08-06T01:38:09.581Z,69.30
2018-08-06T01:40:38.346Z,69.60
2018-08-06T01:43:07.672Z,69.80
2018-08-06T01:45:36.831Z,69.90
2018-08-06T01:48:06.247Z,70.20
2018-08-06T01:50:35.032Z,70.50
2018-08-06T01:53:03.770Z,71.50
2018-08-06T01:55:32.528Z,71.30
2018-08-06T01:58:01.292Z,71.70
2018-08-06T02:00:30.716Z,72.30
2018-08-06T02:02:59.519Z,72.00
2018-08-06T02:05:28.658Z,72.20
2018-08-06T02:07:57.496Z,71.80
2018-08-06T02:10:26.637Z,71.90
2018-08-06T02:12:55.890Z,72.30
2018-08-06T02:15:25.265Z,72.10
2018-08-06T02:17:54.391Z,72.70
2018-08-06T02:20:23.743Z,73.10
2018-08-06T02:22:52.623Z,73.00
2018-08-06T02:25:21.329Z,72.60
2018-08-06T02:27:50.131Z,72.50
2018-08-06T02:30:19.189Z,72.20
2018-08-06T02:32:48.847Z,72.30
2018-08-06T02:35:17.996Z,72.30
2018-08-06T02:37:47.113Z,72.20
2018-08-06T02:40:19.342Z,72.60
2018-08-06T02:42:48.256Z,73.40
2018-08-06T02:45:17.664Z,73.80
2018-08-06T02:47:47.214Z,74.30
2018-08-06T02:50:15.953Z,74.40
2018-08-06T02:52:44.960Z,75.00
2018-08-06T02:55:15.254Z,75.00
2018-08-06T02:57:44.344Z,75.80
2018-08-06T03:00:15.050Z,75.70
2018-08-06T03:02:44.992Z,75.60
2018-08-06T03:05:15.169Z,75.50
2018-08-06T03:07:44.913Z,75.60
2018-08-06T03:10:13.915Z,76.00
2018-08-06T03:12:43.723Z,76.50
2018-08-06T03:15:13.254Z,76.40
2018-08-06T03:17:42.284Z,76.00
2018-08-06T03:20:12.318Z,76.30
2018-08-06T03:22:41.251Z,75.90
2018-08-06T03:25:12.201Z,76.30
2018-08-06T03:27:41.473Z,76.30
2018-08-06T03:30:13.165Z,76.80
2018-08-06T03:32:42.343Z,76.40
2018-08-06T03:35:11.973Z,76.10
2018-08-06T03:37:40.882Z,76.40
2018-08-06T03:40:10.570Z,75.60
2018-08-06T03:42:39.966Z,75.80
2018-08-06T03:45:10.706Z,75.90
2018-08-06T03:47:41.280Z,76.30
2018-08-06T03:50:11.830Z,76.50
2018-08-06T03:52:41.434Z,76.80
2018-08-06T03:55:11.434Z,77.10
2018-08-06T03:57:41.860Z,76.70
2018-08-06T04:00:13.402Z,77.00
2018-08-06T04:02:43.273Z,77.30
2018-08-06T04:05:13.264Z,77.30
2018-08-06T04:07:43.426Z,77.10
2018-08-06T04:10:15.066Z,76.70
2018-08-06T04:12:43.999Z,76.90
2018-08-06T04:15:13.548Z,76.80
2018-08-06T04:17:45.115Z,76.70
2018-08-06T04:20:14.461Z,76.50
2018-08-06T04:25:12.538Z,76.30
2018-08-06T04:27:41.616Z,76.50
2018-08-06T04:30:12.814Z,76.40
2018-08-06T04:32:42.480Z,76.10
2018-08-06T04:35:11.727Z,75.20
2018-08-06T04:37:41.020Z,73.60
2018-08-06T04:40:11.153Z,71.90
2018-08-06T04:42:40.962Z,71.10
2018-08-06T04:45:10.471Z,69.70
2018-08-06T04:47:40.772Z,68.20
2018-08-06T04:50:11.051Z,66.30
2018-08-06T04:52:40.035Z,65.10
2018-08-06T04:55:11.380Z,64.20
2018-08-06T04:57:40.633Z,63.30
2018-08-06T05:00:11.652Z,63.20
2018-08-06T05:02:40.791Z,62.10
2018-08-06T05:05:10.883Z,62.60
2018-08-06T05:07:39.971Z,62.30
2018-08-06T05:10:09.023Z,62.10
2018-08-06T05:12:38.083Z,62.00
2018-08-06T05:15:06.864Z,62.10
2018-08-06T05:17:35.930Z,62.70
2018-08-06T05:20:06.020Z,61.50
2018-08-06T05:22:35.122Z,62.80
2018-08-06T05:25:04.342Z,61.10
2018-08-06T05:27:33.547Z,61.40
2018-08-06T05:30:02.796Z,60.70
2018-08-06T05:32:32.457Z,61.10
2018-08-06T05:35:01.722Z,60.50
2018-08-06T05:37:31.100Z,59.60
2018-08-06T05:40:00.160Z,60.00
2018-08-06T05:42:30.379Z,57.80
2018-08-06T05:44:59.974Z,56.70
2018-08-06T05:49:59.541Z,52.00
2018-08-06T05:52:28.926Z,49.20
2018-08-06T05:54:58.306Z,47.30
2018-08-06T05:57:27.581Z,46.50
2018-08-06T05:59:57.571Z,44.70
2018-08-06T06:02:27.188Z,43.70
2018-08-06T06:04:56.851Z,44.60
2018-08-06T06:07:26.391Z,44.40
2018-08-06T06:09:56.060Z,43.90
2018-08-06T06:12:25.388Z,42.90
2018-08-06T06:14:55.113Z,42.50
2018-08-06T06:17:24.753Z,42.90
2018-08-06T06:19:54.732Z,41.30
2018-08-06T06:22:24.442Z,42.10
2018-08-06T06:24:54.402Z,42.00
2018-08-06T06:27:24.081Z,41.20
2018-08-06T06:29:53.776Z,44.80
2018-08-06T06:32:23.441Z,47.60
2018-08-06T06:34:53.179Z,49.10
2018-08-06T06:37:23.330Z,45.70
2018-08-06T06:39:52.643Z,48.00
2018-08-06T06:42:22.673Z,51.20
2018-08-06T06:44:52.070Z,54.90
2018-08-06T06:47:20.811Z,57.20
2018-08-06T06:49:49.900Z,58.30
2018-08-06T06:52:18.681Z,58.70
2018-08-06T06:54:47.573Z,60.10
2018-08-06T06:57:16.833Z,60.00
2018-08-06T06:59:45.771Z,59.10
2018-08-06T07:02:14.781Z,59.60
2018-08-06T07:04:44.097Z,58.70
2018-08-06T07:07:13.321Z,58.40
2018-08-06T07:09:43.783Z,59.00
2018-08-06T07:12:13.017Z,58.30
2018-08-06T07:14:41.849Z,58.30
2018-08-06T07:17:10.989Z,58.40
2018-08-06T07:19:40.150Z,58.20
2018-08-06T07:22:08.945Z,57.60
2018-08-06T07:24:38.109Z,57.70
2018-08-06T07:27:07.215Z,58.30
2018-08-06T07:29:35.983Z,58.80
2018-08-06T07:32:04.717Z,60.10
2018-08-06T07:34:33.814Z,57.80
2018-08-06T07:37:02.573Z,58.00
2018-08-06T07:39:32.011Z,57.90
2018-08-06T07:42:01.111Z,59.00
2018-08-06T07:44:29.907Z,58.80
2018-08-06T07:46:59.013Z,58.00
2018-08-06T07:49:28.980Z,58.90
2018-08-06T07:51:58.087Z,58.40
2018-08-06T07:54:26.956Z,57.50
2018-08-06T07:56:56.243Z,57.40
2018-08-06T07:59:25.303Z,57.30
2018-08-06T08:01:54.805Z,57.30
2018-08-06T08:04:24.140Z,57.30
2018-08-06T08:06:53.355Z,56.50
2018-08-06T08:09:22.666Z,56.50
2018-08-06T08:11:51.973Z,55.80
2018-08-06T08:14:20.721Z,55.50
2018-08-06T08:16:50.020Z,56.00
2018-08-06T08:19:18.812Z,56.30
2018-08-06T08:21:47.564Z,56.70
2018-08-06T08:24:16.685Z,55.50
2018-08-06T08:26:49.506Z,54.80
2018-08-06T08:29:18.860Z,54.90
2018-08-06T08:31:48.070Z,55.40
2018-08-06T08:34:16.895Z,56.30
2018-08-06T08:36:45.957Z,56.10
2018-08-06T08:39:15.129Z,54.80
2018-08-06T08:41:44.563Z,55.80
2018-08-06T08:44:13.657Z,56.50
2018-08-06T08:46:42.942Z,55.40
2018-08-06T08:49:11.681Z,54.90
2018-08-06T08:51:40.456Z,55.60
2018-08-06T08:54:09.487Z,55.10
2018-08-06T08:56:38.848Z,54.90
2018-08-06T09:01:37.054Z,55.20
2018-08-06T09:04:07.008Z,54.60
2018-08-06T09:06:36.534Z,54.60
2018-08-06T09:09:08.910Z,53.40
2018-08-06T09:11:37.638Z,53.70
2018-08-06T09:14:07.193Z,52.60
2018-08-06T09:16:36.210Z,53.10
2018-08-06T09:19:06.151Z,54.40
2018-08-06T09:21:36.080Z,52.50
2018-08-06T09:24:05.812Z,53.30
2018-08-06T09:26:35.635Z,52.90
2018-08-06T09:29:05.736Z,52.40
2018-08-06T09:31:35.632Z,53.70
2018-08-06T09:34:05.547Z,49.80
2018-08-06T09:36:34.893Z,42.90
2018-08-06T09:39:06.143Z,39.70
2018-08-06T09:41:38.383Z,38.70
2018-08-06T09:44:08.825Z,38.90
2018-08-06T09:46:37.973Z,38.50
2018-08-06T09:49:08.124Z,37.60
2018-08-06T09:51:38.478Z,36.00
2018-08-06T09:54:09.225Z,36.80
2018-08-06T09:59:08.554Z,34.50
2018-08-06T10:04:12.550Z,37.30
2018-08-06T10:06:42.254Z,43.00
2018-08-06T10:09:11.774Z,47.20
2018-08-06T10:11:41.606Z,48.20
2018-08-06T10:14:11.335Z,48.30
2018-08-06T10:16:40.834Z,48.50
2018-08-06T10:19:10.959Z,49.60
2018-08-06T10:21:40.438Z,50.10
2018-08-06T10:24:10.149Z,49.00
2018-08-06T10:26:40.154Z,48.20
2018-08-06T10:29:09.497Z,48.20
2018-08-06T10:31:38.793Z,48.70
2018-08-06T10:34:08.150Z,50.00
2018-08-06T10:36:37.842Z,50.20
2018-08-06T10:39:09.620Z,51.00
2018-08-06T10:41:39.519Z,50.70
2018-08-06T10:44:09.228Z,49.60
2018-08-06T10:46:38.594Z,50.10
2018-08-06T10:49:07.901Z,49.70
2018-08-06T10:51:37.593Z,50.40
2018-08-06T10:54:06.936Z,49.10
2018-08-06T10:56:36.914Z,49.00
2018-08-06T10:59:06.651Z,48.40
